Oasis of the Seas — C6XS7 — position and weather

sailwx.info

Track history (hours):
 
Tides and Currents Weather Stations Pressure Air Temp Water Temp Dewpoint Dewpoint Depression Visibility Wind Speed Wind Dir Waves Ship Positions

Oasis of the Seas

Last reported at 2017-Aug-20 00:00 UTC. Time now 2017-Aug-20 15:38 UTC.
Position N 27°06' W 077°30'.

Length 360 m; draft 9.3 m.

Type: Passenger vessel. MMSI: 311020600.

Wind from 140 at 9 knots

Barometer 1015.0 mb
Air temperature 28.1 ° C
Visibility: greater than 10.8 NM
Dewpoint 25.1 ° C
Water temperature 32.3 ° C

Date/timePositionNaut miles runAvg speedWind from/ knotsBaromVisibWave heightAir tempDewpointWater temp
2017-Aug-20 00:00N 27°06' W 077°30'12520.8 140 / 91015.010.8 28.125.132.3
2017-Aug-19 18:00N 25°36' W 075°54'16618.5 090 / 121016.0 5.4 28.0 31.6
2017-Aug-19 09:00N 23°18' W 074°12'18220.3 100 / 141014.0 29.0 32.0
2017-Aug-19 00:00N 20°42' W 072°30'37813.0 090 / 391015.010.8 29.026.431.4
2017-Aug-17 18:53N 18°33' W 066°13'615.6
2017-Aug-17 18:30N 18°30' W 066°08'2 4.3
2017-Aug-17 18:00N 18°28' W 066°07'0 0.0
2017-Aug-17 17:28N 18°28' W 066°07'0 0.0
2017-Aug-17 16:49N 18°28' W 066°07'0 0.0
2017-Aug-17 16:28N 18°28' W 066°07'0 0.0
2017-Aug-17 15:55N 18°28' W 066°07'0 0.0
2017-Aug-17 15:25N 18°28' W 066°07'0 0.0
2017-Aug-17 14:58N 18°28' W 066°07'0 0.0
2017-Aug-17 14:28N 18°28' W 066°07'0 0.0
2017-Aug-17 13:58N 18°28' W 066°07'0 0.0
2017-Aug-17 13:28N 18°28' W 066°07'0 0.0
2017-Aug-17 12:58N 18°28' W 066°07'0 0.0
2017-Aug-17 12:28N 18°28' W 066°07'0 0.0
2017-Aug-17 11:55N 18°28' W 066°07'0 0.0
2017-Aug-17 11:28N 18°28' W 066°07'0 0.0
2017-Aug-17 10:58N 18°28' W 066°07'1 1.1
2017-Aug-17 10:30N 18°28' W 066°07'5 9.5
2017-Aug-17 10:00N 18°32' W 066°06'6913.7
2017-Aug-17 04:57N 18°10' W 064°56'614.2
2017-Aug-17 04:30N 18°08' W 064°50'4819.1
2017-Aug-17 02:00N 18°00' W 064°00'3911.4 100 / 211015.0 5.4 27.724.131.3
2017-Aug-16 22:35N 18°00' W 063°19'317.6
2017-Aug-16 22:25N 18°00' W 063°16'713.8
2017-Aug-16 21:53N 18°00' W 063°08'5 0.5
2017-Aug-16 11:33N 18°00' W 063°03'0 1.3
2017-Aug-16 11:26N 18°00' W 063°03'814.8
2017-Aug-16 10:55N 18°02' W 063°11'1018.6
2017-Aug-16 10:22N 18°08' W 063°20'818.5
2017-Aug-16 09:56N 18°13' W 063°26'817.9
2017-Aug-16 09:30N 18°18' W 063°33'18519.5
2017-Aug-16 00:00N 20°06' W 066°12'10818.0 070 / 271015.010.8 29.026.931.2
2017-Aug-15 18:00N 21°06' W 067°48'14117.6 070 / 221015.010.8 29.9 32.0
2017-Aug-15 10:00N 22°24' W 069°54'18518.5 110 / 171016.0 28.4 31.7
2017-Aug-15 00:00N 24°06' W 072°42'10617.7 120 / 61016.010.8 28.826.331.8
2017-Aug-14 18:00N 25°06' W 074°18'17018.9 220 / 121017.010.8 29.4 32.4
2017-Aug-14 09:00N 26°42' W 076°54'141 4.6 230 / 51014.0 28.2 32.7
2017-Aug-13 02:10N 26°20' W 079°29'422.4
2017-Aug-13 02:01N 26°16' W 079°30'1122.4
2017-Aug-13 01:30N 26°05' W 079°32'1122.3
2017-Aug-13 01:01N 25°54' W 079°34'1122.4
2017-Aug-13 00:31N 25°43' W 079°36'1122.5
2017-Aug-13 00:01N 25°32' W 079°37'34519.2
2017-Aug-12 06:00N 22°24' W 084°54'16022.0 070 / 121015.010.8 29.2 32.8
2017-Aug-11 22:44N 20°34' W 086°58'416.1
2017-Aug-11 22:30N 20°30' W 086°59'1 2.4
2017-Aug-11 21:59N 20°29' W 086°59'0 0.0
2017-Aug-11 21:29N 20°29' W 086°59'0 0.0
2017-Aug-11 20:59N 20°29' W 086°59'0 0.0
2017-Aug-11 20:29N 20°29' W 086°59'0 0.0
2017-Aug-11 19:59N 20°29' W 086°59'0 0.0
2017-Aug-11 19:30N 20°29' W 086°59'0 0.0
2017-Aug-11 18:56N 20°29' W 086°59'0 0.0
2017-Aug-11 18:30N 20°29' W 086°59'0 0.0
2017-Aug-11 18:00N 20°29' W 086°59'0 0.0
2017-Aug-11 17:29N 20°29' W 086°59'0 0.0
2017-Aug-11 16:59N 20°29' W 086°59'0 0.0
2017-Aug-11 16:30N 20°29' W 086°59'0 0.0
2017-Aug-11 16:00N 20°29' W 086°59'0 0.0
2017-Aug-11 15:29N 20°29' W 086°59'0 0.0
2017-Aug-11 14:59N 20°29' W 086°59'0 0.0
2017-Aug-11 14:00N 20°29' W 086°59'0 0.0
2017-Aug-11 13:30N 20°29' W 086°59'0 0.0
2017-Aug-11 12:56N 20°29' W 086°59'0 0.0
2017-Aug-11 12:29N 20°29' W 086°59'0 0.0
2017-Aug-11 11:59N 20°29' W 086°59'0 0.0
2017-Aug-11 11:30N 20°29' W 086°59'0 0.0
2017-Aug-11 10:59N 20°29' W 086°59'0 0.8
2017-Aug-11 10:30N 20°29' W 086°59'510.5
2017-Aug-11 10:00N 20°34' W 086°58'6014.9
2017-Aug-11 06:00N 20°30' W 085°54'37215.5 090 / 141017.010.8 28.9 31.6
2017-Aug-10 06:00N 19°00' W 079°30'   100 / 161017.010.8 29.2 32.3
Track history (hours):
 
Tides and Currents Weather Stations Pressure Air Temp Water Temp Dewpoint Dewpoint Depression Visibility Wind Speed Wind Dir Waves Ship Positions

Oasis of the Seas

Last reported at 2017-Aug-20 00:00 UTC. Time now 2017-Aug-20 15:38 UTC.
Position N 27°06' W 077°30'.

Length 360 m; draft 9.3 m.

Type: Passenger vessel. MMSI: 311020600.

Wind from 140 at 9 knots

Barometer 1015.0 mb
Air temperature 28.1 ° C
Visibility: greater than 10.8 NM
Dewpoint 25.1 ° C
Water temperature 32.3 ° C

Date/timePositionNaut miles runAvg speedWind from/ knotsBaromVisibWave heightAir tempDewpointWater temp
2017-Aug-20 00:00N 27°06' W 077°30'12520.8 140 / 91015.010.8 28.125.132.3
2017-Aug-19 18:00N 25°36' W 075°54'16618.5 090 / 121016.0 5.4 28.0 31.6
2017-Aug-19 09:00N 23°18' W 074°12'18220.3 100 / 141014.0 29.0 32.0
2017-Aug-19 00:00N 20°42' W 072°30'37813.0 090 / 391015.010.8 29.026.431.4
2017-Aug-17 18:53N 18°33' W 066°13'615.6
2017-Aug-17 18:30N 18°30' W 066°08'2 4.3
2017-Aug-17 18:00N 18°28' W 066°07'0 0.0
2017-Aug-17 17:28N 18°28' W 066°07'0 0.0
2017-Aug-17 16:49N 18°28' W 066°07'0 0.0
2017-Aug-17 16:28N 18°28' W 066°07'0 0.0
2017-Aug-17 15:55N 18°28' W 066°07'0 0.0
2017-Aug-17 15:25N 18°28' W 066°07'0 0.0
2017-Aug-17 14:58N 18°28' W 066°07'0 0.0
2017-Aug-17 14:28N 18°28' W 066°07'0 0.0
2017-Aug-17 13:58N 18°28' W 066°07'0 0.0
2017-Aug-17 13:28N 18°28' W 066°07'0 0.0
2017-Aug-17 12:58N 18°28' W 066°07'0 0.0
2017-Aug-17 12:28N 18°28' W 066°07'0 0.0
2017-Aug-17 11:55N 18°28' W 066°07'0 0.0
2017-Aug-17 11:28N 18°28' W 066°07'0 0.0
2017-Aug-17 10:58N 18°28' W 066°07'1 1.1
2017-Aug-17 10:30N 18°28' W 066°07'5 9.5
2017-Aug-17 10:00N 18°32' W 066°06'6913.7
2017-Aug-17 04:57N 18°10' W 064°56'614.2
2017-Aug-17 04:30N 18°08' W 064°50'4819.1
2017-Aug-17 02:00N 18°00' W 064°00'3911.4 100 / 211015.0 5.4 27.724.131.3
2017-Aug-16 22:35N 18°00' W 063°19'317.6
2017-Aug-16 22:25N 18°00' W 063°16'713.8
2017-Aug-16 21:53N 18°00' W 063°08'5 0.5
2017-Aug-16 11:33N 18°00' W 063°03'0 1.3
2017-Aug-16 11:26N 18°00' W 063°03'814.8
2017-Aug-16 10:55N 18°02' W 063°11'1018.6
2017-Aug-16 10:22N 18°08' W 063°20'818.5
2017-Aug-16 09:56N 18°13' W 063°26'817.9
2017-Aug-16 09:30N 18°18' W 063°33'18519.5
2017-Aug-16 00:00N 20°06' W 066°12'10818.0 070 / 271015.010.8 29.026.931.2
2017-Aug-15 18:00N 21°06' W 067°48'14117.6 070 / 221015.010.8 29.9 32.0
2017-Aug-15 10:00N 22°24' W 069°54'18518.5 110 / 171016.0 28.4 31.7
2017-Aug-15 00:00N 24°06' W 072°42'10617.7 120 / 61016.010.8 28.826.331.8
2017-Aug-14 18:00N 25°06' W 074°18'17018.9 220 / 121017.010.8 29.4 32.4
2017-Aug-14 09:00N 26°42' W 076°54'141 4.6 230 / 51014.0 28.2 32.7
2017-Aug-13 02:10N 26°20' W 079°29'422.4
2017-Aug-13 02:01N 26°16' W 079°30'1122.4
2017-Aug-13 01:30N 26°05' W 079°32'1122.3
2017-Aug-13 01:01N 25°54' W 079°34'1122.4
2017-Aug-13 00:31N 25°43' W 079°36'1122.5
2017-Aug-13 00:01N 25°32' W 079°37'34519.2
2017-Aug-12 06:00N 22°24' W 084°54'16022.0 070 / 121015.010.8 29.2 32.8
2017-Aug-11 22:44N 20°34' W 086°58'416.1
2017-Aug-11 22:30N 20°30' W 086°59'1 2.4
2017-Aug-11 21:59N 20°29' W 086°59'0 0.0
2017-Aug-11 21:29N 20°29' W 086°59'0 0.0
2017-Aug-11 20:59N 20°29' W 086°59'0 0.0
2017-Aug-11 20:29N 20°29' W 086°59'0 0.0
2017-Aug-11 19:59N 20°29' W 086°59'0 0.0
2017-Aug-11 19:30N 20°29' W 086°59'0 0.0
2017-Aug-11 18:56N 20°29' W 086°59'0 0.0
2017-Aug-11 18:30N 20°29' W 086°59'0 0.0
2017-Aug-11 18:00N 20°29' W 086°59'0 0.0
2017-Aug-11 17:29N 20°29' W 086°59'0 0.0
2017-Aug-11 16:59N 20°29' W 086°59'0 0.0
2017-Aug-11 16:30N 20°29' W 086°59'0 0.0
2017-Aug-11 16:00N 20°29' W 086°59'0 0.0
2017-Aug-11 15:29N 20°29' W 086°59'0 0.0
2017-Aug-11 14:59N 20°29' W 086°59'0 0.0
2017-Aug-11 14:00N 20°29' W 086°59'0 0.0
2017-Aug-11 13:30N 20°29' W 086°59'0 0.0
2017-Aug-11 12:56N 20°29' W 086°59'0 0.0
2017-Aug-11 12:29N 20°29' W 086°59'0 0.0
2017-Aug-11 11:59N 20°29' W 086°59'0 0.0
2017-Aug-11 11:30N 20°29' W 086°59'0 0.0
2017-Aug-11 10:59N 20°29' W 086°59'0 0.8
2017-Aug-11 10:30N 20°29' W 086°59'510.5
2017-Aug-11 10:00N 20°34' W 086°58'6014.9
2017-Aug-11 06:00N 20°30' W 085°54'37215.5 090 / 141017.010.8 28.9 31.6
2017-Aug-10 06:00N 19°00' W 079°30'   100 / 161017.010.8 29.2 32.3

Dump ship's entire track history